Detroit, Michigan
Traffic Map
Current Weather Conditions
Detroit, Michigan
Broken Clouds
Broken Clouds
-6°
Feels Like: -6°
Wind Chill: -6° Ceiling: 19000
Heat Index: -6° Visibility: 15mi
Dew Point: -14° Wind: 3mph
Humidity: 54% Direction: 310° (NW)
Pressure: 30.34in Gusts: 0mph
Raw Report DataCYQG 281400Z 31003KT 240V010 15SM FEW035 FEW140 BKN190 M06/M14 A3034 RMK SC1AC1AC7 SC TR AC TR SLP284
Traffic Incident Summary
Active as of:
Severity:
Category:
InformationThere was an issue retrieving the traffic information for this location. Please try a different location or try again shortly.
Advertisements
Track Severe Weather on mobile